createdAt,value
2023-05-05T00:01:13.280Z,19.40
2023-05-05T00:03:41.851Z,19.38
2023-05-05T00:06:09.589Z,18.60
2023-05-05T00:08:37.330Z,18.47
2023-05-05T00:11:05.130Z,18.57
2023-05-05T00:13:32.880Z,18.01
2023-05-05T00:16:02.218Z,18.82
2023-05-05T00:18:30.205Z,18.09
2023-05-05T00:20:57.822Z,18.17
2023-05-05T00:23:26.042Z,18.90
2023-05-05T00:25:53.850Z,17.72
2023-05-05T00:28:22.024Z,18.40
2023-05-05T00:30:49.866Z,18.13
2023-05-05T00:33:18.944Z,18.13
2023-05-05T00:35:46.584Z,18.33
2023-05-05T00:38:14.252Z,17.73
2023-05-05T00:40:42.311Z,18.73
2023-05-05T00:43:09.974Z,18.22
2023-05-05T00:45:41.814Z,18.61
2023-05-05T00:48:10.482Z,18.38
2023-05-05T00:50:39.733Z,18.66
2023-05-05T00:53:08.023Z,18.25
2023-05-05T00:55:36.670Z,18.50
2023-05-05T00:58:04.589Z,18.65
2023-05-05T01:00:32.736Z,18.44
2023-05-05T01:03:00.884Z,18.04
2023-05-05T01:05:29.424Z,18.71
2023-05-05T01:08:07.194Z,18.63
2023-05-05T01:10:38.009Z,17.40
2023-05-05T01:13:14.024Z,18.54
2023-05-05T01:15:47.589Z,18.75
2023-05-05T01:18:19.520Z,19.10
2023-05-05T01:20:50.915Z,19.30
2023-05-05T01:23:34.067Z,17.65
2023-05-05T01:26:23.201Z,18.12
2023-05-05T01:29:08.682Z,19.18
2023-05-05T01:31:44.382Z,18.93
2023-05-05T01:34:15.507Z,18.81
2023-05-05T01:36:45.697Z,18.87
2023-05-05T01:39:16.704Z,18.80
2023-05-05T01:41:46.772Z,18.91
2023-05-05T01:44:16.278Z,18.97
2023-05-05T01:46:45.356Z,19.27
2023-05-05T01:49:13.623Z,19.30
2023-05-05T01:51:42.242Z,18.66
2023-05-05T01:54:19.883Z,19.07
2023-05-05T01:56:47.644Z,19.18
2023-05-05T01:59:16.961Z,18.36
2023-05-05T02:01:47.263Z,19.26
2023-05-05T02:04:15.457Z,19.62
2023-05-05T02:06:44.524Z,18.92
2023-05-05T02:09:14.114Z,19.76
2023-05-05T02:11:42.090Z,19.24
2023-05-05T02:14:10.462Z,19.34
2023-05-05T02:16:41.262Z,19.47
2023-05-05T02:19:10.662Z,18.91
2023-05-05T02:21:38.813Z,19.50
2023-05-05T02:24:07.401Z,19.70
2023-05-05T02:26:36.775Z,19.52
2023-05-05T02:29:07.513Z,19.29
2023-05-05T02:31:37.390Z,18.98
2023-05-05T02:34:06.422Z,18.36
2023-05-05T02:36:38.674Z,18.24
2023-05-05T02:39:12.650Z,18.75
2023-05-05T02:41:41.209Z,18.18
2023-05-05T02:44:11.153Z,19.47
2023-05-05T02:46:39.033Z,19.74
2023-05-05T02:49:06.766Z,18.94
2023-05-05T02:51:36.187Z,19.29
2023-05-05T02:54:04.081Z,20.01
2023-05-05T02:56:37.191Z,20.30
2023-05-05T02:59:11.038Z,19.26
2023-05-05T03:01:51.295Z,19.89
2023-05-05T03:04:26.386Z,18.95
2023-05-05T03:06:58.365Z,19.05
2023-05-05T03:09:29.874Z,20.03
2023-05-05T03:12:01.197Z,19.97
2023-05-05T03:14:32.089Z,19.53
2023-05-05T03:17:01.173Z,19.98
2023-05-05T03:19:29.776Z,19.83
2023-05-05T03:21:59.192Z,20.02
2023-05-05T03:24:26.960Z,20.69
2023-05-05T03:26:54.664Z,19.29
2023-05-05T03:29:22.523Z,20.10
2023-05-05T03:31:50.644Z,19.28
2023-05-05T03:34:18.363Z,20.29
2023-05-05T03:36:46.052Z,19.58
2023-05-05T03:39:15.234Z,19.35
2023-05-05T03:41:42.878Z,18.57
2023-05-05T03:46:52.411Z,18.48
2023-05-05T03:49:20.190Z,18.67
2023-05-05T03:51:48.216Z,19.79
2023-05-05T03:54:17.839Z,20.12
2023-05-05T03:56:45.517Z,19.49
2023-05-05T03:59:13.178Z,19.68
2023-05-05T04:01:40.830Z,19.72
2023-05-05T04:04:09.447Z,18.82
2023-05-05T04:06:37.183Z,19.09
2023-05-05T04:09:05.823Z,19.82
2023-05-05T04:11:35.012Z,18.85
2023-05-05T04:14:02.676Z,20.85
2023-05-05T04:16:31.091Z,19.71
2023-05-05T04:18:58.841Z,20.38
2023-05-05T04:21:26.507Z,19.56
2023-05-05T04:23:54.203Z,19.88
2023-05-05T04:26:22.165Z,19.75
2023-05-05T04:28:51.252Z,19.76
2023-05-05T04:31:19.292Z,19.71
2023-05-05T04:33:46.961Z,20.12
2023-05-05T04:36:14.644Z,20.09
2023-05-05T04:39:04.214Z,19.83
2023-05-05T04:41:31.926Z,20.16
2023-05-05T04:44:00.977Z,19.82
2023-05-05T04:46:28.732Z,20.61
2023-05-05T04:48:56.641Z,19.92
2023-05-05T04:51:24.272Z,19.90
2023-05-05T04:53:51.999Z,19.47
2023-05-05T04:56:19.757Z,19.08
2023-05-05T04:58:47.394Z,19.58
2023-05-05T05:01:16.449Z,21.01
2023-05-05T05:03:44.298Z,20.13
2023-05-05T05:06:12.031Z,21.30
2023-05-05T05:08:39.674Z,21.88
2023-05-05T05:11:07.530Z,21.77
2023-05-05T05:13:35.196Z,21.62
2023-05-05T05:16:02.989Z,21.31
2023-05-05T05:18:32.264Z,22.51
2023-05-05T05:21:00.047Z,22.01
2023-05-05T05:23:27.825Z,22.39
2023-05-05T05:25:55.885Z,21.48
2023-05-05T05:28:23.550Z,19.94
2023-05-05T05:30:52.103Z,19.42
2023-05-05T05:33:20.293Z,19.96
2023-05-05T05:35:49.374Z,21.02
2023-05-05T05:38:17.650Z,20.08
2023-05-05T05:41:07.549Z,20.97
2023-05-05T05:43:35.230Z,19.98
2023-05-05T05:46:03.033Z,21.25
2023-05-05T05:48:30.714Z,21.46
2023-05-05T05:50:59.765Z,21.76
2023-05-05T05:53:27.658Z,21.55
2023-05-05T05:55:55.587Z,22.03
2023-05-05T05:58:23.385Z,22.11
2023-05-05T06:00:51.142Z,21.60
2023-05-05T06:03:18.960Z,22.58
2023-05-05T06:05:46.996Z,22.80
2023-05-05T06:08:16.178Z,20.86
2023-05-05T06:10:48.189Z,22.92
2023-05-05T06:13:16.011Z,21.04
2023-05-05T06:15:43.788Z,20.75
2023-05-05T06:18:11.858Z,21.95
2023-05-05T06:20:39.986Z,21.96
2023-05-05T06:23:08.189Z,21.54
2023-05-05T06:25:37.662Z,21.94
2023-05-05T06:28:06.161Z,22.06
2023-05-05T06:30:34.188Z,22.53
2023-05-05T06:33:01.933Z,22.31
2023-05-05T06:35:30.440Z,21.70
2023-05-05T06:37:58.104Z,22.78
2023-05-05T06:40:25.932Z,23.07
2023-05-05T06:42:55.100Z,21.05
2023-05-05T06:45:22.901Z,22.69
2023-05-05T06:47:50.770Z,22.46
2023-05-05T06:50:18.535Z,21.56
2023-05-05T06:52:46.177Z,21.37
2023-05-05T06:55:13.819Z,22.03
2023-05-05T06:57:41.508Z,22.66
2023-05-05T07:00:12.886Z,21.44
2023-05-05T07:02:40.639Z,21.40
2023-05-05T07:05:08.753Z,22.29
2023-05-05T07:07:36.688Z,22.94
2023-05-05T07:10:04.511Z,22.19
2023-05-05T07:12:32.279Z,23.38
2023-05-05T07:15:00.769Z,23.19
2023-05-05T07:17:34.032Z,24.33
2023-05-05T07:20:01.955Z,24.51
2023-05-05T07:22:29.741Z,24.43
2023-05-05T07:24:57.386Z,23.71
2023-05-05T07:27:25.073Z,23.16
2023-05-05T07:29:54.928Z,24.32
2023-05-05T07:32:22.814Z,23.84
2023-05-05T07:35:18.569Z,23.48
2023-05-05T07:37:46.752Z,23.02
2023-05-05T07:43:23.602Z,23.85
2023-05-05T07:45:51.364Z,23.58
2023-05-05T07:48:19.085Z,23.67
2023-05-05T07:50:48.205Z,24.25
2023-05-05T07:53:16.191Z,24.04
2023-05-05T07:55:43.890Z,23.08
2023-05-05T07:58:12.003Z,23.76
2023-05-05T08:00:40.056Z,25.03
2023-05-05T08:03:11.333Z,25.09
2023-05-05T08:05:39.601Z,24.41
2023-05-05T08:08:08.804Z,23.67
2023-05-05T08:10:37.429Z,24.29
2023-05-05T08:13:05.193Z,23.50
2023-05-05T08:15:33.001Z,24.38
2023-05-05T08:18:00.747Z,24.75
2023-05-05T08:20:29.809Z,23.80
2023-05-05T08:22:57.614Z,24.35
2023-05-05T08:25:27.656Z,22.54
2023-05-05T08:27:55.654Z,23.84
2023-05-05T08:30:23.412Z,24.28
2023-05-05T08:32:51.373Z,23.42
2023-05-05T08:35:19.191Z,24.78
2023-05-05T08:37:46.954Z,23.85
2023-05-05T08:40:15.411Z,25.73
2023-05-05T08:42:45.780Z,24.43
2023-05-05T08:45:13.553Z,25.91
2023-05-05T08:47:43.294Z,25.91
2023-05-05T08:50:12.419Z,25.06
2023-05-05T08:52:42.145Z,25.56
2023-05-05T08:55:15.723Z,25.55
2023-05-05T08:57:50.068Z,27.43
2023-05-05T09:00:19.754Z,23.94
2023-05-05T09:02:48.427Z,23.91
2023-05-05T09:05:16.490Z,24.86
2023-05-05T09:07:44.950Z,24.43
2023-05-05T09:10:13.352Z,25.71
2023-05-05T09:12:41.664Z,25.43
2023-05-05T09:15:12.368Z,24.88
2023-05-05T09:17:40.120Z,25.47
2023-05-05T09:20:09.509Z,25.67
2023-05-05T09:22:38.381Z,25.11
2023-05-05T09:25:06.910Z,27.24
2023-05-05T09:27:38.776Z,25.15
2023-05-05T09:30:08.134Z,24.47
2023-05-05T09:32:48.872Z,25.59
2023-05-05T09:35:17.320Z,26.58
2023-05-05T09:37:45.225Z,23.79
2023-05-05T09:40:15.778Z,25.60
2023-05-05T09:42:44.362Z,26.78
2023-05-05T09:45:26.526Z,25.67
2023-05-05T09:50:44.563Z,25.74
2023-05-05T09:53:12.267Z,27.67
2023-05-05T09:55:41.046Z,26.21
2023-05-05T09:58:18.610Z,27.26
2023-05-05T10:00:46.635Z,26.82
2023-05-05T10:03:16.132Z,27.85
2023-05-05T10:06:13.643Z,26.54
2023-05-05T10:08:41.643Z,25.61
2023-05-05T10:11:09.450Z,25.64
2023-05-05T10:13:38.893Z,26.51
2023-05-05T10:16:10.052Z,27.69
2023-05-05T10:18:41.422Z,28.33
2023-05-05T10:21:17.580Z,29.13
2023-05-05T10:23:49.764Z,29.42
2023-05-05T10:26:18.602Z,27.33
2023-05-05T10:28:48.782Z,27.71
2023-05-05T10:31:26.038Z,28.88
2023-05-05T10:34:01.880Z,28.30
2023-05-05T10:36:31.706Z,27.00
2023-05-05T10:38:59.551Z,28.76
2023-05-05T10:41:27.711Z,27.84
2023-05-05T10:43:57.772Z,27.22
2023-05-05T10:46:26.263Z,28.61
2023-05-05T10:49:01.303Z,26.69
2023-05-05T10:51:39.928Z,26.85
2023-05-05T10:54:12.820Z,27.80
2023-05-05T10:56:41.343Z,26.46
2023-05-05T11:02:20.026Z,27.14
2023-05-05T11:05:08.506Z,28.01
2023-05-05T11:07:36.450Z,26.95
2023-05-05T11:10:05.783Z,27.43
2023-05-05T11:13:12.549Z,26.24
2023-05-05T11:15:40.448Z,27.43
2023-05-05T11:18:08.635Z,29.23
2023-05-05T11:21:07.299Z,29.29
2023-05-05T11:23:35.163Z,28.53
2023-05-05T11:26:02.907Z,27.94
2023-05-05T11:28:57.002Z,30.41
2023-05-05T11:31:24.760Z,29.65
2023-05-05T11:33:53.008Z,28.63
2023-05-05T11:36:22.757Z,31.75
2023-05-05T11:39:03.535Z,29.33
2023-05-05T11:41:52.067Z,28.80
2023-05-05T11:44:20.825Z,29.70
2023-05-05T11:47:26.808Z,28.41
2023-05-05T11:49:55.515Z,29.12
2023-05-05T11:52:45.530Z,29.14
2023-05-05T11:55:13.209Z,28.91
2023-05-05T11:57:41.200Z,29.13
2023-05-05T12:00:10.345Z,28.99
2023-05-05T12:02:38.333Z,28.86
2023-05-05T12:05:06.944Z,27.19
2023-05-05T12:07:36.011Z,29.23
2023-05-05T12:10:03.903Z,29.46
2023-05-05T12:12:36.086Z,28.88
2023-05-05T12:15:04.745Z,29.89
2023-05-05T12:17:45.014Z,29.23
2023-05-05T12:20:13.811Z,29.35
2023-05-05T12:22:43.804Z,28.62
2023-05-05T12:25:12.011Z,30.60
2023-05-05T12:27:39.887Z,31.20
2023-05-05T12:30:15.811Z,28.78
2023-05-05T12:32:44.391Z,29.81
2023-05-05T12:35:12.887Z,29.19
2023-05-05T12:37:40.758Z,28.80
2023-05-05T12:40:45.978Z,28.26
2023-05-05T12:43:35.044Z,27.84
2023-05-05T12:46:04.626Z,28.03
2023-05-05T12:48:32.560Z,29.77
2023-05-05T12:51:17.463Z,27.76
2023-05-05T12:53:45.750Z,28.89
2023-05-05T12:56:35.204Z,28.16
2023-05-05T12:59:11.779Z,29.82
2023-05-05T13:01:50.944Z,27.60
2023-05-05T13:04:19.157Z,28.11
2023-05-05T13:06:54.456Z,28.85
2023-05-05T13:09:26.899Z,27.31
2023-05-05T13:11:56.560Z,27.69
2023-05-05T13:14:47.966Z,27.57
2023-05-05T13:17:15.826Z,27.81
2023-05-05T13:19:46.267Z,27.78
2023-05-05T13:22:14.730Z,26.34
2023-05-05T13:24:51.713Z,26.85
2023-05-05T13:27:21.930Z,25.46
2023-05-05T13:29:49.839Z,25.53
2023-05-05T13:32:17.557Z,26.68
2023-05-05T13:34:45.370Z,26.32
2023-05-05T13:37:13.018Z,25.01
2023-05-05T13:39:40.711Z,25.31
2023-05-05T13:42:08.341Z,26.18
2023-05-05T13:44:37.410Z,26.07
2023-05-05T13:47:05.626Z,26.38
2023-05-05T13:49:33.457Z,25.98
2023-05-05T13:54:36.756Z,25.62
2023-05-05T13:57:04.808Z,24.39
2023-05-05T13:59:32.507Z,25.45
2023-05-05T14:02:02.080Z,25.71
2023-05-05T14:04:29.829Z,25.27
2023-05-05T14:06:58.180Z,24.18
2023-05-05T14:09:26.208Z,22.37
2023-05-05T14:11:53.893Z,21.04
2023-05-05T14:14:21.700Z,20.26
2023-05-05T14:16:50.355Z,19.21
2023-05-05T14:19:19.593Z,19.71
2023-05-05T14:21:47.289Z,19.62
2023-05-05T14:24:44.081Z,20.10
2023-05-05T14:27:11.738Z,18.84
2023-05-05T14:29:39.445Z,19.87
2023-05-05T14:32:07.127Z,20.46
2023-05-05T14:34:38.085Z,19.54
2023-05-05T14:37:05.749Z,19.77
2023-05-05T14:39:33.451Z,19.53
2023-05-05T14:42:01.951Z,19.02
2023-05-05T14:44:46.748Z,19.20
2023-05-05T14:47:14.435Z,19.57
2023-05-05T14:49:43.495Z,19.83
2023-05-05T14:52:11.255Z,18.48
2023-05-05T14:54:38.982Z,17.80
2023-05-05T14:57:07.652Z,19.06
2023-05-05T14:59:35.343Z,19.48
2023-05-05T15:02:03.054Z,19.02
2023-05-05T15:04:30.744Z,18.67
2023-05-05T15:06:59.840Z,18.36
2023-05-05T15:12:11.792Z,18.20
2023-05-05T15:14:39.943Z,18.00
2023-05-05T15:17:07.666Z,18.22
2023-05-05T15:19:35.377Z,18.91
2023-05-05T15:22:04.457Z,18.18
2023-05-05T15:24:32.129Z,19.16
2023-05-05T15:26:59.834Z,18.59
2023-05-05T15:29:27.591Z,19.56
2023-05-05T15:31:55.274Z,19.56
2023-05-05T15:34:22.977Z,19.54
2023-05-05T15:36:50.814Z,18.85
2023-05-05T15:39:20.013Z,18.33
2023-05-05T15:41:47.788Z,19.22
2023-05-05T15:44:16.017Z,19.25
2023-05-05T15:46:43.755Z,19.16
2023-05-05T15:49:11.504Z,19.18
2023-05-05T15:51:39.260Z,19.36
2023-05-05T15:54:07.773Z,19.48
2023-05-05T15:56:36.924Z,19.76
2023-05-05T15:59:04.731Z,18.42
2023-05-05T16:01:36.247Z,19.29
2023-05-05T16:04:04.647Z,19.47
2023-05-05T16:06:32.589Z,19.95
2023-05-05T16:09:00.263Z,20.96
2023-05-05T16:11:28.003Z,22.13
2023-05-05T16:13:57.070Z,21.47
2023-05-05T16:16:25.129Z,21.31
2023-05-05T16:18:52.800Z,21.31
2023-05-05T16:21:20.535Z,22.11
2023-05-05T16:23:48.247Z,21.76
2023-05-05T16:26:15.963Z,22.20
2023-05-05T16:29:10.007Z,21.76
2023-05-05T16:34:05.294Z,22.24
2023-05-05T16:36:33.005Z,24.74
2023-05-05T16:39:00.672Z,21.32
2023-05-05T16:41:28.530Z,21.45
2023-05-05T16:43:56.417Z,21.09
2023-05-05T16:46:25.550Z,21.06
2023-05-05T16:48:53.286Z,19.92
2023-05-05T16:51:20.955Z,21.41
2023-05-05T16:53:49.140Z,21.79
2023-05-05T16:56:16.894Z,19.93
2023-05-05T16:58:44.577Z,22.25
2023-05-05T17:01:12.345Z,20.65
2023-05-05T17:03:41.454Z,21.95
2023-05-05T17:06:09.658Z,21.97
2023-05-05T17:08:37.342Z,22.16
2023-05-05T17:11:05.024Z,22.41
2023-05-05T17:13:32.683Z,22.36
2023-05-05T17:16:00.502Z,22.79
2023-05-05T17:18:28.253Z,22.82
2023-05-05T17:20:57.376Z,22.56
2023-05-05T17:23:25.071Z,22.63
2023-05-05T17:25:52.732Z,22.70
2023-05-05T17:28:20.531Z,22.08
2023-05-05T17:30:48.217Z,21.53
2023-05-05T17:33:18.309Z,21.99
2023-05-05T17:35:46.036Z,22.41
2023-05-05T17:38:15.505Z,23.49
2023-05-05T17:40:43.283Z,23.66
2023-05-05T17:43:10.957Z,22.07
2023-05-05T17:45:38.720Z,22.71
2023-05-05T17:48:06.922Z,21.95
2023-05-05T17:50:34.948Z,23.20
2023-05-05T17:53:02.679Z,23.53
2023-05-05T17:55:31.756Z,23.61
2023-05-05T17:57:59.713Z,22.69
2023-05-05T18:00:27.492Z,22.86
2023-05-05T18:02:55.275Z,22.99
2023-05-05T18:05:23.058Z,23.16
2023-05-05T18:07:50.725Z,22.51
2023-05-05T18:10:18.576Z,21.27
2023-05-05T18:12:47.860Z,21.82
2023-05-05T18:20:46.171Z,20.99
2023-05-05T18:23:13.879Z,20.92
2023-05-05T18:25:42.418Z,19.96
2023-05-05T18:28:15.236Z,20.13
2023-05-05T18:30:42.927Z,20.11
2023-05-05T18:33:10.719Z,19.63
2023-05-05T18:35:38.667Z,20.92
2023-05-05T18:38:06.401Z,19.83
2023-05-05T18:40:34.331Z,20.74
2023-05-05T18:43:02.058Z,20.14
2023-05-05T18:45:31.259Z,20.52
2023-05-05T18:47:59.060Z,20.34
2023-05-05T18:50:26.895Z,20.41
2023-05-05T18:52:54.578Z,20.14
2023-05-05T18:55:22.696Z,19.73
2023-05-05T18:57:50.376Z,19.54
2023-05-05T19:00:19.925Z,20.15
2023-05-05T19:02:49.120Z,20.34
2023-05-05T19:05:16.922Z,20.66
2023-05-05T19:07:45.239Z,20.62
2023-05-05T19:10:12.983Z,20.21
2023-05-05T19:12:40.885Z,19.08
2023-05-05T19:15:09.858Z,20.12
2023-05-05T19:17:37.877Z,19.19
2023-05-05T19:20:08.785Z,19.13
2023-05-05T19:22:36.677Z,18.77
2023-05-05T19:25:04.744Z,19.16
2023-05-05T19:27:33.896Z,18.81
2023-05-05T19:30:01.719Z,19.62
2023-05-05T19:32:29.587Z,19.57
2023-05-05T19:37:46.762Z,19.28
2023-05-05T19:40:14.705Z,19.88
2023-05-05T19:42:42.566Z,20.23
2023-05-05T19:45:10.375Z,19.60
2023-05-05T19:47:38.088Z,19.04
2023-05-05T19:50:06.549Z,19.53
2023-05-05T19:52:36.543Z,19.75
2023-05-05T19:55:06.751Z,19.57
2023-05-05T19:57:34.523Z,19.53
2023-05-05T20:00:02.443Z,18.83
2023-05-05T20:02:30.167Z,19.56
2023-05-05T20:04:58.057Z,18.27
2023-05-05T20:07:25.975Z,18.17
2023-05-05T20:09:53.638Z,19.17
2023-05-05T20:12:23.612Z,18.59
2023-05-05T20:14:51.384Z,17.89
2023-05-05T20:17:20.227Z,17.98
2023-05-05T20:19:48.853Z,18.88
2023-05-05T20:22:16.585Z,19.28
2023-05-05T20:24:48.125Z,18.63
2023-05-05T20:27:15.894Z,17.48
2023-05-05T20:29:44.974Z,17.48
2023-05-05T20:32:12.848Z,18.18
2023-05-05T20:34:40.517Z,17.86
2023-05-05T20:37:08.225Z,18.59
2023-05-05T20:39:36.094Z,18.76
2023-05-05T20:42:03.820Z,18.72
2023-05-05T20:44:31.552Z,18.63
2023-05-05T20:47:00.679Z,18.33
2023-05-05T20:49:28.439Z,18.27
2023-05-05T20:51:56.102Z,18.20
2023-05-05T20:54:44.591Z,18.18
2023-05-05T20:57:12.415Z,18.26
2023-05-05T20:59:40.358Z,18.60
2023-05-05T21:02:09.556Z,17.94
2023-05-05T21:04:37.215Z,18.45
2023-05-05T21:07:04.880Z,17.96
2023-05-05T21:09:35.258Z,18.10
2023-05-05T21:12:03.313Z,18.40
2023-05-05T21:14:31.050Z,18.95
2023-05-05T21:16:58.853Z,18.92
2023-05-05T21:19:28.210Z,17.70
2023-05-05T21:21:59.012Z,17.92
2023-05-05T21:24:28.051Z,18.26
2023-05-05T21:26:56.373Z,18.57
2023-05-05T21:29:24.600Z,18.88
2023-05-05T21:31:52.323Z,17.78
2023-05-05T21:34:20.209Z,18.00
2023-05-05T21:36:49.269Z,18.53
2023-05-05T21:39:17.233Z,18.09
2023-05-05T21:41:44.890Z,17.67
2023-05-05T21:44:12.624Z,18.43
2023-05-05T21:46:40.532Z,18.84
2023-05-05T21:49:13.561Z,18.50
2023-05-05T21:51:41.465Z,17.06
2023-05-05T21:54:10.605Z,17.69
2023-05-05T21:56:38.698Z,17.11
2023-05-05T21:59:07.094Z,16.86
2023-05-05T22:01:34.833Z,17.70
2023-05-05T22:04:02.713Z,17.73
2023-05-05T22:06:30.688Z,18.30
2023-05-05T22:08:58.314Z,18.45
2023-05-05T22:11:28.710Z,17.87
2023-05-05T22:13:57.013Z,17.62
2023-05-05T22:16:24.672Z,17.72
2023-05-05T22:18:52.552Z,17.82
2023-05-05T22:21:20.189Z,17.94
2023-05-05T22:23:47.909Z,17.84
2023-05-05T22:26:15.571Z,18.07
2023-05-05T22:28:44.663Z,17.03
2023-05-05T22:31:12.348Z,17.23
2023-05-05T22:33:40.003Z,16.66
2023-05-05T22:36:10.105Z,16.65
2023-05-05T22:38:38.200Z,16.64
2023-05-05T22:41:07.276Z,17.23
2023-05-05T22:43:34.990Z,17.86
2023-05-05T22:46:04.067Z,17.41
2023-05-05T22:48:31.823Z,17.08
2023-05-05T22:50:59.945Z,16.90
2023-05-05T22:53:27.609Z,16.76
2023-05-05T22:55:55.272Z,16.90
2023-05-05T22:58:23.324Z,17.22
2023-05-05T23:00:50.989Z,17.14
2023-05-05T23:03:20.050Z,17.41
2023-05-05T23:05:47.713Z,17.58
2023-05-05T23:08:15.483Z,18.01
2023-05-05T23:10:43.300Z,18.42
2023-05-05T23:13:11.100Z,17.67
2023-05-05T23:15:39.009Z,17.82
2023-05-05T23:18:06.842Z,16.97
2023-05-05T23:20:36.037Z,17.01
2023-05-05T23:23:04.127Z,16.71
2023-05-05T23:25:31.840Z,16.45
2023-05-05T23:27:59.602Z,17.39
2023-05-05T23:30:27.282Z,17.22
2023-05-05T23:32:55.206Z,17.49
2023-05-05T23:35:22.851Z,17.44
2023-05-05T23:37:51.860Z,17.80
2023-05-05T23:40:20.125Z,17.18
2023-05-05T23:42:47.767Z,16.80
2023-05-05T23:45:18.061Z,17.44
2023-05-05T23:47:47.171Z,17.02
2023-05-05T23:50:14.854Z,17.66
2023-05-05T23:52:43.034Z,17.63
2023-05-05T23:55:12.263Z,17.57
2023-05-05T23:57:39.927Z,17.17
